Time;durP1;ratioP1;P1;durP2;ratioP2;P2;SDS_P1;SDS_P2;PMS_P1;PMS_P2;Temp;Humidity;BMP_temperature;BMP_pressure;BME280_temperature;BME280_humidity;BME280_pressure;Samples;Min_cycle;Max_cycle;Signal;HPM_P1;HPM_P2
2022/09/11 00:01:08;;;;;;;22.37;13.97;;;16.10;76.80;;;;;;5051441;28;20084;-72
2022/09/11 00:03:36;;;;;;;25.15;14.32;;;16.00;76.80;;;;;;5051438;28;20053;-72
2022/09/11 00:06:04;;;;;;;27.38;15.45;;;16.00;76.90;;;;;;5033371;28;20139;-72
2022/09/11 00:08:33;;;;;;;24.38;14.68;;;16.00;77.00;;;;;;5051057;28;20566;-72
2022/09/11 00:11:06;;;;;;;24.48;13.70;;;15.90;77.20;;;;;;5032928;28;20046;-72
2022/09/11 00:13:33;;;;;;;25.57;13.83;;;15.90;77.50;;;;;;5033569;28;20056;-73
2022/09/11 00:16:01;;;;;;;27.38;15.45;;;15.80;77.70;;;;;;5051202;28;20053;-72
2022/09/11 00:18:29;;;;;;;26.13;15.13;;;15.80;77.80;;;;;;5033420;28;20625;-72
2022/09/11 00:20:57;;;;;;;26.73;15.98;;;15.80;77.90;;;;;;5051045;28;20172;-72
2022/09/11 00:23:26;;;;;;;28.77;16.10;;;15.70;78.30;;;;;;5033234;28;20054;-72
2022/09/11 00:25:55;;;;;;;26.60;15.50;;;15.70;78.10;;;;;;5033058;28;20176;-72
2022/09/11 00:28:24;;;;;;;26.75;15.35;;;15.70;77.80;;;;;;5051172;28;20053;-72
2022/09/11 00:30:58;;;;;;;23.90;14.70;;;15.80;77.60;;;;;;5050399;28;20555;-72
2022/09/11 00:33:26;;;;;;;25.50;16.05;;;15.80;77.80;;;;;;5049378;28;20682;-72
2022/09/11 00:35:57;;;;;;;27.13;15.57;;;15.80;77.60;;;;;;5033183;28;20515;-72
2022/09/11 00:38:25;;;;;;;27.57;15.30;;;15.80;77.80;;;;;;5016791;28;20494;-72
2022/09/11 00:40:53;;;;;;;29.50;16.70;;;15.80;77.70;;;;;;5016318;28;20112;-72
2022/09/11 00:43:21;;;;;;;29.55;17.55;;;15.70;77.80;;;;;;5033068;28;20057;-72
2022/09/11 00:45:55;;;;;;;28.33;16.25;;;15.80;77.80;;;;;;5032876;28;20496;-72
2022/09/11 00:48:24;;;;;;;25.90;15.60;;;15.80;77.80;;;;;;5016314;28;20103;-72
2022/09/11 00:50:53;;;;;;;29.70;16.63;;;15.80;77.70;;;;;;5049062;28;20151;-72
2022/09/11 00:53:23;;;;;;;29.25;17.27;;;15.80;77.70;;;;;;5032668;28;20049;-72
2022/09/11 00:55:53;;;;;;;28.65;17.17;;;15.80;77.70;;;;;;5032293;28;20045;-72
2022/09/11 00:58:25;;;;;;;30.23;17.92;;;15.80;77.70;;;;;;5032763;28;20136;-72
2022/09/11 01:00:54;;;;;;;26.27;15.77;;;15.80;77.60;;;;;;5032149;28;20046;-72
2022/09/11 01:03:22;;;;;;;26.90;15.90;;;15.80;77.60;;;;;;5050590;28;20058;-72
2022/09/11 01:05:51;;;;;;;26.85;15.45;;;15.80;77.50;;;;;;5015983;28;20515;-72
2022/09/11 01:08:19;;;;;;;27.98;16.40;;;15.80;77.50;;;;;;5032856;28;20892;-72
2022/09/11 01:10:56;;;;;;;26.50;15.48;;;15.80;77.50;;;;;;5032342;28;20117;-72
2022/09/11 01:13:32;;;;;;;30.02;17.20;;;15.80;77.60;;;;;;5016426;28;20386;-72
2022/09/11 01:16:11;;;;;;;29.00;17.10;;;15.80;77.50;;;;;;5032531;28;20498;-72
2022/09/11 01:18:44;;;;;;;27.88;15.85;;;15.80;77.50;;;;;;5015879;28;20045;-72
2022/09/11 01:21:47;;;;;;;27.58;15.82;;;15.80;77.60;;;;;;5032329;28;20495;-72
2022/09/11 01:24:27;;;;;;;28.00;15.27;;;15.80;77.40;;;;;;5047020;28;20405;-72
2022/09/11 01:27:09;;;;;;;29.85;16.42;;;15.80;77.50;;;;;;5016213;28;20147;-72
2022/09/11 01:29:43;;;;;;;30.23;17.07;;;15.80;77.40;;;;;;5032306;28;20081;-72
2022/09/11 01:32:15;;;;;;;27.20;15.65;;;15.80;77.50;;;;;;5016006;28;20090;-72
2022/09/11 01:34:51;;;;;;;28.13;16.13;;;15.80;77.50;;;;;;5032371;28;20077;-72
2022/09/11 01:37:25;;;;;;;27.42;15.68;;;15.80;77.70;;;;;;5015975;28;20049;-72
2022/09/11 01:39:58;;;;;;;26.80;15.10;;;15.70;77.60;;;;;;5032395;28;20054;-72
2022/09/11 01:42:30;;;;;;;27.17;16.03;;;15.60;77.60;;;;;;5016552;28;20049;-72
2022/09/11 01:44:59;;;;;;;27.52;15.40;;;15.60;77.70;;;;;;5019306;28;20053;-71
2022/09/11 01:47:28;;;;;;;27.10;15.98;;;15.60;77.80;;;;;;5035878;28;20053;-72
2022/09/11 01:50:02;;;;;;;27.23;15.68;;;15.60;77.70;;;;;;5018903;28;20050;-72
2022/09/11 01:52:35;;;;;;;27.50;15.40;;;15.60;77.70;;;;;;5035317;28;20526;-71
2022/09/11 01:55:11;;;;;;;27.47;15.57;;;15.60;77.60;;;;;;5035342;28;20103;-72
2022/09/11 01:57:43;;;;;;;27.95;15.75;;;15.60;77.60;;;;;;5019140;28;20049;-72
2022/09/11 02:00:14;;;;;;;25.92;15.25;;;15.60;77.60;;;;;;5018948;28;20056;-72
2022/09/11 02:02:54;;;;;;;25.17;14.45;;;15.60;77.60;;;;;;5035479;28;20042;-72
2022/09/11 02:05:25;;;;;;;26.60;14.90;;;15.60;77.50;;;;;;5035259;28;20926;-73
2022/09/11 02:07:57;;;;;;;18.67;11.13;;;15.60;77.50;;;;;;5052363;28;20121;-73
2022/09/11 02:10:30;;;;;;;17.90;10.00;;;15.60;77.50;;;;;;5019472;28;20045;-72
2022/09/11 02:13:03;;;;;;;19.70;12.30;;;15.60;77.30;;;;;;5018757;28;20072;-72
2022/09/11 02:15:38;;;;;;;19.42;12.18;;;15.60;77.10;;;;;;5018293;28;20049;-72
2022/09/11 02:18:16;;;;;;;21.20;13.15;;;15.60;77.20;;;;;;5018717;28;20049;-72
2022/09/11 02:20:46;;;;;;;19.90;12.50;;;15.60;77.10;;;;;;5018656;28;20490;-72
2022/09/11 02:23:14;;;;;;;22.67;12.82;;;15.60;77.10;;;;;;5035144;28;20060;-72
2022/09/11 02:25:41;;;;;;;18.75;11.25;;;15.60;77.00;;;;;;5018617;28;20056;-72
2022/09/11 02:28:10;;;;;;;22.50;13.35;;;15.60;76.90;;;;;;5018319;28;20045;-73
2022/09/11 02:30:40;;;;;;;24.10;14.55;;;15.60;76.80;;;;;;5034702;28;20052;-72
2022/09/11 02:33:27;;;;;;;21.93;13.83;;;15.60;77.00;;;;;;5018298;28;20115;-72
2022/09/11 02:36:09;;;;;;;20.60;12.45;;;15.60;77.10;;;;;;5018814;28;20494;-72
2022/09/11 02:38:45;;;;;;;17.10;10.52;;;15.50;77.30;;;;;;5034733;28;20045;-72
2022/09/11 02:41:18;;;;;;;15.10;8.73;;;15.50;77.20;;;;;;5034835;28;20096;-72
2022/09/11 02:43:57;;;;;;;15.63;8.60;;;15.50;76.90;;;;;;5034910;28;20045;-72
2022/09/11 02:46:42;;;;;;;13.83;8.83;;;15.50;76.80;;;;;;5051503;28;20050;-72
2022/09/11 02:49:20;;;;;;;18.77;11.00;;;15.50;76.50;;;;;;5034234;28;20042;-72
2022/09/11 02:51:56;;;;;;;18.40;11.25;;;15.50;76.50;;;;;;5017972;28;20045;-72
2022/09/11 02:54:32;;;;;;;17.88;10.70;;;15.50;76.50;;;;;;5017723;28;20049;-72
2022/09/11 02:57:06;;;;;;;17.83;11.23;;;15.50;76.50;;;;;;5034632;28;20189;-72
2022/09/11 02:59:39;;;;;;;17.27;10.27;;;15.50;76.50;;;;;;5017619;28;20053;-72
2022/09/11 03:02:12;;;;;;;14.77;8.75;;;15.50;76.70;;;;;;5018184;28;20136;-72
2022/09/11 03:04:39;;;;;;;15.55;9.10;;;15.50;76.50;;;;;;5018133;28;20141;-72
2022/09/11 03:07:06;;;;;;;11.38;6.65;;;15.50;76.40;;;;;;5017460;28;20140;-72
2022/09/11 03:09:33;;;;;;;15.15;9.70;;;15.50;76.50;;;;;;5033980;28;20140;-72
2022/09/11 03:12:06;;;;;;;16.77;11.33;;;15.50;76.50;;;;;;5034323;28;20251;-72
2022/09/11 03:14:37;;;;;;;18.98;11.95;;;15.50;76.70;;;;;;5032878;28;20050;-72
2022/09/11 03:17:05;;;;;;;20.92;12.57;;;15.40;76.80;;;;;;5015888;28;20045;-72
2022/09/11 03:19:33;;;;;;;17.67;10.82;;;15.40;77.00;;;;;;5050578;28;20060;-72
2022/09/11 03:22:01;;;;;;;21.00;12.65;;;15.40;77.00;;;;;;5016732;28;20055;-72
2022/09/11 03:24:28;;;;;;;20.53;12.03;;;15.40;77.10;;;;;;5016342;28;20578;-72
2022/09/11 03:26:55;;;;;;;21.15;12.52;;;15.30;77.20;;;;;;5016307;28;20560;-72
2022/09/11 03:29:23;;;;;;;18.80;11.93;;;15.30;77.30;;;;;;5017230;28;20052;-72
2022/09/11 03:31:50;;;;;;;17.35;9.88;;;15.30;77.50;;;;;;5017701;28;20419;-72
2022/09/11 03:34:18;;;;;;;17.55;10.88;;;15.30;77.60;;;;;;5052255;28;20493;-72
2022/09/11 03:36:47;;;;;;;18.67;10.23;;;15.30;77.50;;;;;;5017628;28;20053;-72
2022/09/11 03:39:14;;;;;;;15.13;9.77;;;15.20;77.50;;;;;;5033580;28;20091;-72
2022/09/11 03:41:41;;;;;;;15.52;9.23;;;15.20;77.20;;;;;;5034008;28;20116;-72
2022/09/11 03:44:08;;;;;;;11.75;7.65;;;15.20;77.20;;;;;;5051597;28;20060;-72
2022/09/11 03:46:35;;;;;;;11.90;7.30;;;15.20;77.20;;;;;;5016999;28;20065;-72
2022/09/11 03:49:02;;;;;;;11.50;7.07;;;15.20;76.90;;;;;;5033601;28;20057;-72
2022/09/11 03:51:31;;;;;;;10.63;6.72;;;15.20;76.70;;;;;;5033587;28;20119;-73
2022/09/11 03:54:01;;;;;;;9.90;6.05;;;15.20;76.50;;;;;;5033523;28;20533;-72
2022/09/11 03:56:29;;;;;;;9.98;6.38;;;15.20;76.40;;;;;;5017498;28;20144;-72
2022/09/11 03:58:57;;;;;;;9.98;5.60;;;15.20;76.30;;;;;;5016729;28;20519;-72
2022/09/11 04:01:24;;;;;;;8.50;5.33;;;15.20;76.20;;;;;;5017197;28;20107;-72
2022/09/11 04:03:52;;;;;;;8.80;5.10;;;15.10;76.00;;;;;;5033269;28;20104;-72
2022/09/11 04:06:32;;;;;;;8.70;5.32;;;15.10;75.90;;;;;;5032605;28;20060;-72
2022/09/11 04:09:01;;;;;;;7.35;4.70;;;15.00;75.70;;;;;;5033063;28;20053;-72
2022/09/11 04:11:28;;;;;;;7.88;5.10;;;15.00;75.70;;;;;;5033799;28;20525;-72
2022/09/11 04:13:56;;;;;;;9.13;4.63;;;15.00;75.60;;;;;;5017112;28;21075;-72
2022/09/11 04:16:31;;;;;;;15.55;3.85;;;15.00;75.50;;;;;;5016756;28;20521;-72
2022/09/11 04:19:00;;;;;;;6.03;3.55;;;15.00;75.40;;;;;;5016619;28;20531;-72
2022/09/11 04:21:27;;;;;;;6.38;3.75;;;15.00;75.20;;;;;;5033397;28;20133;-72
2022/09/11 04:23:58;;;;;;;5.60;3.47;;;15.00;75.20;;;;;;5033358;28;20116;-72
2022/09/11 04:26:30;;;;;;;6.03;3.90;;;15.00;75.40;;;;;;5016562;28;20760;-72
2022/09/11 04:29:05;;;;;;;8.60;5.28;;;14.90;75.50;;;;;;5016181;28;20045;-72
2022/09/11 04:31:34;;;;;;;7.47;4.78;;;14.90;75.50;;;;;;5033163;28;20057;-72
2022/09/11 04:34:01;;;;;;;7.10;4.70;;;14.80;75.50;;;;;;5033227;28;20049;-72
2022/09/11 04:36:32;;;;;;;5.65;3.90;;;14.80;75.50;;;;;;5033081;28;20049;-72
2022/09/11 04:39:00;;;;;;;10.47;5.67;;;14.80;75.50;;;;;;5016255;28;20050;-72
2022/09/11 04:41:28;;;;;;;7.57;4.90;;;14.80;75.40;;;;;;5016452;28;20141;-72
2022/09/11 04:44:00;;;;;;;7.57;4.47;;;14.80;75.40;;;;;;5033216;28;20056;-72
2022/09/11 04:46:27;;;;;;;7.93;4.95;;;14.80;75.40;;;;;;5016338;28;20100;-72
2022/09/11 04:48:58;;;;;;;10.02;5.30;;;14.70;75.50;;;;;;5032335;28;20508;-72
2022/09/11 04:51:27;;;;;;;9.87;6.20;;;14.70;75.70;;;;;;5049651;28;20083;-72
2022/09/11 04:53:56;;;;;;;7.95;5.07;;;14.70;75.80;;;;;;5050330;28;20545;-72
2022/09/11 04:56:27;;;;;;;10.27;5.88;;;14.70;76.20;;;;;;5032561;28;20103;-72
2022/09/11 04:58:59;;;;;;;8.82;5.57;;;14.60;76.20;;;;;;5032685;28;20057;-72
2022/09/11 05:01:29;;;;;;;9.32;5.95;;;14.60;76.50;;;;;;5016569;28;20049;-72
2022/09/11 05:04:00;;;;;;;10.23;6.67;;;14.50;76.60;;;;;;5032966;28;20119;-72
2022/09/11 05:06:29;;;;;;;11.20;6.60;;;14.50;76.80;;;;;;5032860;28;20053;-72
2022/09/11 05:09:01;;;;;;;10.48;6.78;;;14.50;77.00;;;;;;5016136;28;20559;-71
2022/09/11 05:11:28;;;;;;;10.38;7.32;;;14.50;77.20;;;;;;5032993;28;20049;-71
2022/09/11 05:13:58;;;;;;;12.40;7.85;;;14.50;77.50;;;;;;5016307;28;20069;-72
2022/09/11 05:16:27;;;;;;;12.90;8.20;;;14.50;77.90;;;;;;5033673;28;20049;-71
2022/09/11 05:18:55;;;;;;;12.15;7.90;;;14.50;77.80;;;;;;5036179;28;20049;-71
2022/09/11 05:21:25;;;;;;;11.18;7.53;;;14.50;78.00;;;;;;5019812;28;20579;-71
2022/09/11 05:23:54;;;;;;;12.27;8.27;;;14.50;78.00;;;;;;5019948;28;20042;-72
2022/09/11 05:26:23;;;;;;;12.13;7.90;;;14.50;78.10;;;;;;5019660;28;20065;-72
2022/09/11 05:28:54;;;;;;;12.50;8.87;;;14.50;78.20;;;;;;5020106;28;20127;-71
2022/09/11 05:31:24;;;;;;;13.00;8.82;;;14.50;78.30;;;;;;5036549;28;20049;-72
2022/09/11 05:33:51;;;;;;;13.57;9.65;;;14.50;78.70;;;;;;5036301;28;20049;-71
2022/09/11 05:36:18;;;;;;;12.98;8.45;;;14.50;78.90;;;;;;5019642;28;20054;-71
2022/09/11 05:38:46;;;;;;;13.48;8.40;;;14.50;79.10;;;;;;5036047;28;20045;-72
2022/09/11 05:41:14;;;;;;;11.17;6.77;;;14.50;79.20;;;;;;5026627;28;20500;-72
2022/09/11 05:43:42;;;;;;;8.88;5.80;;;14.50;79.30;;;;;;5014128;28;20741;-71
2022/09/11 05:46:12;;;;;;;10.00;6.72;;;14.50;79.30;;;;;;5016170;28;20053;-72
2022/09/11 05:48:40;;;;;;;11.20;7.10;;;14.50;79.10;;;;;;4998956;28;20527;-71
2022/09/11 05:51:12;;;;;;;10.55;7.10;;;14.50;79.10;;;;;;4999426;28;20607;-72
2022/09/11 05:53:39;;;;;;;10.70;7.17;;;14.50;79.00;;;;;;5014953;28;20050;-71
2022/09/11 05:56:10;;;;;;;11.10;7.07;;;14.50;79.00;;;;;;4997624;28;20042;-72
2022/09/11 05:58:37;;;;;;;9.63;6.97;;;14.50;78.80;;;;;;4998394;28;20109;-72
2022/09/11 06:01:07;;;;;;;12.88;7.75;;;14.50;78.90;;;;;;5015036;28;20054;-73
2022/09/11 06:03:37;;;;;;;11.40;7.63;;;14.50;78.90;;;;;;5014903;28;20050;-72
2022/09/11 06:06:07;;;;;;;12.40;7.93;;;14.50;79.00;;;;;;5032819;28;20155;-72
2022/09/11 06:08:35;;;;;;;12.30;8.00;;;14.60;79.10;;;;;;5023309;28;20158;-71
2022/09/11 06:11:06;;;;;;;14.43;9.25;;;14.60;79.30;;;;;;5022386;28;20058;-72
2022/09/11 06:13:37;;;;;;;13.15;8.35;;;14.60;79.50;;;;;;5010974;28;20039;-72
2022/09/11 06:16:07;;;;;;;13.20;8.75;;;14.60;80.20;;;;;;4986644;28;20429;-72
2022/09/11 06:18:34;;;;;;;14.13;8.90;;;14.60;80.80;;;;;;5030070;28;20086;-72
2022/09/11 06:21:04;;;;;;;14.40;9.95;;;14.60;81.20;;;;;;5013339;28;20061;-72
2022/09/11 06:23:39;;;;;;;14.13;10.18;;;14.50;81.70;;;;;;5012425;28;20137;-71
2022/09/11 06:26:08;;;;;;;14.48;9.98;;;14.60;82.00;;;;;;5014195;28;20054;-72
2022/09/11 06:28:38;;;;;;;14.07;9.93;;;14.50;82.50;;;;;;5013925;28;20127;-72
2022/09/11 06:31:07;;;;;;;14.53;9.83;;;14.50;82.60;;;;;;4935154;28;20062;-72
2022/09/11 06:33:37;;;;;;;14.07;9.57;;;14.60;82.50;;;;;;5010099;28;20527;-72
2022/09/11 06:36:06;;;;;;;14.48;9.75;;;14.60;82.90;;;;;;4979366;28;20054;-72
2022/09/11 06:38:34;;;;;;;14.10;9.77;;;14.60;83.60;;;;;;5015989;28;20626;-72
2022/09/11 06:41:04;;;;;;;12.85;9.27;;;14.60;83.40;;;;;;5021048;28;20062;-72
2022/09/11 06:43:34;;;;;;;12.67;8.87;;;14.60;83.20;;;;;;5031650;28;20483;-72
2022/09/11 06:46:06;;;;;;;12.57;8.20;;;14.70;83.70;;;;;;5008001;28;20053;-74
2022/09/11 06:48:34;;;;;;;12.25;8.32;;;14.70;83.70;;;;;;5021752;28;20050;-74
2022/09/11 06:51:06;;;;;;;12.73;8.32;;;14.70;83.70;;;;;;5014426;28;20489;-73
2022/09/11 06:53:34;;;;;;;11.40;8.15;;;14.70;84.00;;;;;;5025636;28;20054;-75
2022/09/11 06:57:06;;;;;;;12.23;8.73;;;14.70;83.60;;;;;;5025810;28;20105;-74
2022/09/11 06:59:35;;;;;;;13.73;8.82;;;14.70;84.40;;;;;;5005627;28;20053;-73
2022/09/11 07:02:03;;;;;;;12.60;8.70;;;14.70;83.70;;;;;;5019569;28;20145;-72
2022/09/11 07:04:30;;;;;;;12.10;8.60;;;14.70;83.90;;;;;;5017393;28;20050;-73
2022/09/11 07:06:57;;;;;;;12.80;8.50;;;14.80;84.10;;;;;;4996242;28;20140;-74
2022/09/11 07:09:25;;;;;;;10.67;7.47;;;14.80;84.30;;;;;;5013728;28;20493;-75
2022/09/11 07:11:56;;;;;;;12.25;8.18;;;14.80;84.10;;;;;;4997754;28;20682;-74
2022/09/11 07:14:24;;;;;;;13.70;8.93;;;14.90;83.70;;;;;;4997671;28;20048;-71
2022/09/11 07:16:59;;;;;;;12.63;7.72;;;14.90;83.70;;;;;;4997221;28;20057;-70
2022/09/11 07:19:26;;;;;;;12.68;7.93;;;14.90;83.40;;;;;;4996368;28;20213;-71
2022/09/11 07:21:53;;;;;;;12.80;8.77;;;15.00;83.50;;;;;;4996250;28;20057;-70
2022/09/11 07:24:24;;;;;;;14.75;9.35;;;15.00;83.50;;;;;;4996523;28;20879;-71
2022/09/11 07:26:51;;;;;;;13.52;9.55;;;15.00;83.50;;;;;;4996940;28;20415;-72
2022/09/11 07:29:25;;;;;;;13.27;8.50;;;15.00;83.50;;;;;;4996353;28;20510;-71
2022/09/11 07:31:54;;;;;;;12.98;8.85;;;15.10;84.30;;;;;;5013495;28;20050;-71
2022/09/11 07:34:23;;;;;;;13.20;9.53;;;15.20;83.90;;;;;;5014437;28;21047;-73
2022/09/11 07:36:51;;;;;;;15.07;9.55;;;15.20;83.90;;;;;;5015077;28;20049;-73
2022/09/11 07:39:20;;;;;;;13.57;8.82;;;15.30;84.70;;;;;;4997375;28;20046;-72
2022/09/11 07:42:01;;;;;;;13.65;9.15;;;15.30;84.20;;;;;;5013266;28;20412;-72
2022/09/11 07:44:32;;;;;;;14.75;10.45;;;15.40;83.90;;;;;;4997056;28;20053;-74
2022/09/11 07:46:59;;;;;;;14.03;9.40;;;15.40;83.90;;;;;;4996812;28;20628;-74
2022/09/11 07:49:28;;;;;;;13.90;8.90;;;15.40;84.70;;;;;;4997738;28;20038;-75
2022/09/11 07:51:55;;;;;;;14.82;9.48;;;15.50;85.40;;;;;;4998153;28;20046;-75
2022/09/11 07:54:33;;;;;;;15.95;9.68;;;15.60;84.90;;;;;;5013364;28;20417;-75
2022/09/11 07:57:01;;;;;;;16.17;10.50;;;15.60;85.30;;;;;;4997459;28;20149;-76
2022/09/11 07:59:29;;;;;;;14.43;10.03;;;15.70;84.90;;;;;;4996194;28;20100;-78
2022/09/11 08:01:57;;;;;;;15.70;10.98;;;15.80;84.70;;;;;;4995897;28;20055;-75
2022/09/11 08:04:24;;;;;;;17.55;9.93;;;15.80;85.20;;;;;;5012812;28;20038;-72
2022/09/11 08:06:53;;;;;;;18.42;10.65;;;15.90;86.40;;;;;;5012657;28;20053;-72
2022/09/11 08:09:27;;;;;;;13.70;9.00;;;16.00;86.10;;;;;;5010366;28;20053;-72
2022/09/11 08:11:57;;;;;;;13.20;9.27;;;16.00;85.90;;;;;;5011392;28;20061;-72
2022/09/11 08:14:27;;;;;;;13.57;9.32;;;16.10;86.20;;;;;;5011421;28;20121;-72
2022/09/11 08:16:56;;;;;;;15.60;9.80;;;16.20;85.70;;;;;;5009857;28;20112;-73
2022/09/11 08:19:26;;;;;;;12.77;8.10;;;16.20;85.80;;;;;;4994642;28;20096;-72
2022/09/11 08:21:57;;;;;;;14.88;9.20;;;16.30;85.40;;;;;;5009916;28;20492;-72
2022/09/11 08:24:26;;;;;;;13.23;8.90;;;16.40;85.60;;;;;;5012947;28;20052;-71
2022/09/11 08:26:56;;;;;;;11.88;7.78;;;16.40;85.40;;;;;;5027102;28;20136;-72
2022/09/11 08:29:25;;;;;;;14.15;8.52;;;16.40;85.30;;;;;;5011650;28;20046;-71
2022/09/11 08:31:53;;;;;;;13.43;8.30;;;16.50;85.50;;;;;;5010695;28;20042;-72
2022/09/11 08:34:21;;;;;;;15.05;7.53;;;16.50;85.50;;;;;;4996971;28;20121;-71
2022/09/11 08:36:50;;;;;;;11.03;7.27;;;16.60;85.20;;;;;;5012602;28;20061;-72
2022/09/11 08:39:19;;;;;;;8.02;5.57;;;16.60;85.30;;;;;;4996434;28;20116;-72
2022/09/11 08:41:59;;;;;;;10.90;6.32;;;16.70;85.30;;;;;;4937149;28;20104;-72
2022/09/11 08:44:29;;;;;;;11.38;6.50;;;16.80;85.50;;;;;;5012749;28;20406;-73
2022/09/11 08:47:17;;;;;;;11.63;5.88;;;16.80;85.40;;;;;;5010280;28;20092;-73
2022/09/11 08:49:53;;;;;;;10.90;6.40;;;16.90;85.10;;;;;;5028687;28;20049;-73
2022/09/11 08:52:21;;;;;;;8.10;4.18;;;16.90;85.00;;;;;;5028312;28;20050;-74
2022/09/11 08:54:50;;;;;;;7.93;4.13;;;17.00;85.50;;;;;;4997653;28;20060;-73
2022/09/11 08:57:23;;;;;;;7.15;4.22;;;17.10;85.20;;;;;;5012507;28;20050;-73
2022/09/11 09:00:05;;;;;;;10.57;5.20;;;17.20;85.10;;;;;;5012286;28;20064;-73
2022/09/11 09:02:56;;;;;;;7.97;4.73;;;17.20;85.10;;;;;;4949926;28;20062;-73
2022/09/11 09:05:31;;;;;;;9.13;4.60;;;17.40;85.40;;;;;;5010648;28;20510;-73
2022/09/11 09:08:09;;;;;;;7.68;4.50;;;17.50;85.50;;;;;;4994124;28;20438;-73
2022/09/11 09:10:49;;;;;;;7.82;3.80;;;17.50;85.00;;;;;;5012015;28;20494;-72
2022/09/11 09:13:38;;;;;;;7.88;4.25;;;17.60;85.20;;;;;;5027367;28;20065;-74
2022/09/11 09:16:13;;;;;;;7.20;4.50;;;17.70;85.00;;;;;;5013516;28;20065;-74
2022/09/11 09:18:46;;;;;;;8.13;3.78;;;17.80;84.50;;;;;;5029127;28;20046;-74
2022/09/11 09:21:19;;;;;;;7.88;4.22;;;17.80;84.10;;;;;;5013121;28;20574;-74
2022/09/11 09:23:52;;;;;;;6.82;3.70;;;17.90;84.00;;;;;;4994940;28;20049;-74
2022/09/11 09:26:21;;;;;;;7.40;3.80;;;18.00;83.60;;;;;;5012254;28;20050;-74
2022/09/11 09:28:52;;;;;;;6.47;3.43;;;18.00;82.90;;;;;;5012570;28;20054;-74
2022/09/11 09:31:26;;;;;;;6.22;3.22;;;18.10;82.50;;;;;;5012221;28;20053;-74
2022/09/11 09:33:59;;;;;;;5.78;3.38;;;18.10;82.10;;;;;;5011263;28;20042;-74
2022/09/11 09:36:30;;;;;;;5.82;3.00;;;18.10;81.40;;;;;;5010448;28;20053;-75
2022/09/11 09:38:59;;;;;;;5.13;2.80;;;18.20;80.90;;;;;;5009605;28;20137;-74
2022/09/11 09:41:57;;;;;;;5.40;2.63;;;18.20;80.90;;;;;;4988833;28;20045;-74
2022/09/11 09:44:41;;;;;;;6.07;3.17;;;18.20;80.70;;;;;;5023553;28;20061;-74
2022/09/11 09:47:11;;;;;;;6.03;3.28;;;18.30;80.90;;;;;;5027256;28;20769;-73
2022/09/11 09:49:39;;;;;;;4.90;2.80;;;18.30;80.80;;;;;;5011424;28;20050;-75
2022/09/11 09:52:16;;;;;;;6.63;2.42;;;18.30;80.80;;;;;;5029959;28;20052;-75
2022/09/11 09:54:49;;;;;;;6.33;2.80;;;18.40;80.60;;;;;;5011699;28;20050;-74
2022/09/11 09:57:16;;;;;;;4.63;2.40;;;18.50;80.00;;;;;;5011769;28;20507;-73
2022/09/11 09:59:51;;;;;;;7.35;2.75;;;18.50;79.70;;;;;;5011085;28;20157;-74
2022/09/11 10:02:37;;;;;;;5.00;2.42;;;18.60;79.60;;;;;;5011215;28;20050;-74
2022/09/11 10:05:15;;;;;;;5.85;2.30;;;18.70;79.30;;;;;;5031057;28;20068;-75
2022/09/11 10:07:47;;;;;;;5.00;2.07;;;18.70;79.30;;;;;;5010951;28;20050;-74
2022/09/11 10:10:23;;;;;;;6.05;1.95;;;18.80;78.60;;;;;;5032249;28;20065;-74
2022/09/11 10:12:51;;;;;;;4.97;1.92;;;18.90;78.60;;;;;;5032998;28;20129;-75
2022/09/11 10:15:21;;;;;;;4.43;1.83;;;18.90;78.60;;;;;;5032921;28;20499;-75
2022/09/11 10:17:52;;;;;;;4.20;1.70;;;19.00;78.30;;;;;;4996230;28;20050;-75
2022/09/11 10:20:27;;;;;;;4.57;1.60;;;19.10;78.00;;;;;;5031666;28;20060;-75
2022/09/11 10:22:55;;;;;;;3.25;1.70;;;19.10;77.70;;;;;;5030690;28;20127;-75
2022/09/11 10:25:25;;;;;;;3.67;1.90;;;19.10;77.30;;;;;;5013831;28;21154;-75
2022/09/11 10:28:01;;;;;;;4.85;1.65;;;19.20;77.20;;;;;;5031879;28;20046;-75
2022/09/11 10:30:34;;;;;;;5.25;1.77;;;19.20;76.70;;;;;;5031683;28;20073;-75
2022/09/11 10:33:06;;;;;;;4.47;1.70;;;19.30;76.50;;;;;;5032044;28;20045;-76
2022/09/11 10:35:35;;;;;;;4.20;1.65;;;19.30;76.30;;;;;;5031973;28;20596;-75
2022/09/11 10:38:21;;;;;;;5.25;2.10;;;19.30;76.10;;;;;;5030912;28;20073;-75
2022/09/11 10:41:06;;;;;;;4.25;1.60;;;19.30;75.90;;;;;;5031602;28;20208;-75
2022/09/11 10:43:39;;;;;;;4.53;1.80;;;19.40;75.90;;;;;;5014168;28;20089;-75
2022/09/11 10:46:23;;;;;;;5.20;1.40;;;19.40;76.20;;;;;;5032051;28;20066;-75
2022/09/11 10:48:55;;;;;;;5.97;1.73;;;19.40;75.90;;;;;;5013750;28;20427;-75
2022/09/11 10:51:23;;;;;;;3.42;1.55;;;19.50;75.50;;;;;;5031726;28;20493;-75
2022/09/11 10:54:12;;;;;;;3.70;1.70;;;19.50;75.00;;;;;;5013534;28;20050;-74
2022/09/11 10:56:49;;;;;;;4.22;2.13;;;19.60;75.10;;;;;;5031819;28;20060;-75
2022/09/11 10:59:22;;;;;;;5.80;2.27;;;19.70;74.50;;;;;;5031634;28;20052;-76
2022/09/11 11:01:51;;;;;;;4.55;2.38;;;19.80;73.70;;;;;;5031489;28;20058;-75
2022/09/11 11:04:18;;;;;;;5.07;2.60;;;19.90;73.80;;;;;;5032411;28;20119;-75
2022/09/11 11:06:59;;;;;;;4.22;2.15;;;20.00;73.70;;;;;;5014988;28;20144;-75
2022/09/11 11:09:34;;;;;;;4.05;1.50;;;20.00;73.20;;;;;;5030446;28;20049;-76
2022/09/11 11:12:19;;;;;;;4.53;1.50;;;20.10;71.70;;;;;;5031310;28;20050;-75
2022/09/11 11:15:05;;;;;;;5.07;1.88;;;20.20;71.40;;;;;;5032393;28;20108;-75
2022/09/11 11:17:44;;;;;;;5.00;1.90;;;20.30;71.00;;;;;;5014937;28;20546;-73
2022/09/11 11:20:28;;;;;;;4.43;1.80;;;20.40;70.70;;;;;;5032404;28;20048;-73
2022/09/11 11:23:14;;;;;;;3.25;1.23;;;20.50;68.00;;;;;;5031994;28;20108;-73
2022/09/11 11:25:49;;;;;;;4.70;1.60;;;20.50;66.60;;;;;;5020448;28;20136;-73
2022/09/11 11:28:31;;;;;;;3.65;1.30;;;20.50;66.60;;;;;;5032097;28;20064;-73
2022/09/11 11:31:10;;;;;;;3.55;2.00;;;20.60;67.20;;;;;;5029688;28;20792;-73
2022/09/11 11:33:53;;;;;;;3.20;1.50;;;20.60;68.20;;;;;;5030063;28;20135;-73
2022/09/11 11:36:27;;;;;;;3.65;1.45;;;20.60;67.20;;;;;;5028379;28;20054;-74
2022/09/11 11:39:00;;;;;;;3.73;1.53;;;20.60;67.20;;;;;;5030605;28;20053;-74
2022/09/11 11:41:32;;;;;;;6.57;1.90;;;20.60;67.50;;;;;;5014338;28;20988;-74
2022/09/11 11:44:03;;;;;;;4.65;1.85;;;20.60;68.00;;;;;;5030230;28;20053;-74
2022/09/11 11:46:37;;;;;;;5.07;1.67;;;20.60;68.30;;;;;;5029009;28;20052;-74
2022/09/11 11:49:12;;;;;;;6.25;2.38;;;20.70;68.40;;;;;;5012495;28;20050;-74
2022/09/11 11:51:47;;;;;;;4.27;1.97;;;20.80;68.70;;;;;;5013150;28;21085;-74
2022/09/11 11:54:19;;;;;;;4.15;1.88;;;20.80;68.00;;;;;;5031661;28;20054;-74
2022/09/11 11:56:50;;;;;;;4.55;1.80;;;20.90;67.80;;;;;;5011582;28;20631;-74
2022/09/11 11:59:30;;;;;;;4.30;1.90;;;21.00;65.70;;;;;;5012814;28;20057;-74
2022/09/11 12:02:01;;;;;;;5.57;1.65;;;21.00;65.30;;;;;;5012355;28;20046;-74
2022/09/11 12:04:40;;;;;;;3.40;1.27;;;21.00;65.40;;;;;;5013425;28;20052;-74
2022/09/11 12:07:14;;;;;;;4.45;1.80;;;21.10;66.20;;;;;;5022683;28;20054;-74
2022/09/11 12:09:48;;;;;;;3.75;1.45;;;21.10;66.90;;;;;;5012828;28;20057;-74
2022/09/11 12:12:18;;;;;;;4.13;1.45;;;21.10;64.70;;;;;;5031103;28;20049;-74
2022/09/11 12:14:50;;;;;;;4.40;1.85;;;21.20;64.10;;;;;;5012924;28;20053;-74
2022/09/11 12:17:19;;;;;;;3.57;1.20;;;21.20;63.90;;;;;;5013070;28;20073;-74
2022/09/11 12:20:29;;;;;;;4.28;1.40;;;21.20;64.30;;;;;;5012502;28;20509;-73
2022/09/11 12:22:57;;;;;;;4.97;1.40;;;21.30;64.20;;;;;;5030500;28;20057;-73
2022/09/11 12:25:50;;;;;;;3.10;1.58;;;21.30;64.70;;;;;;5013075;28;20046;-72
2022/09/11 12:28:22;;;;;;;4.47;1.52;;;21.30;65.40;;;;;;5012414;28;20058;-73
2022/09/11 12:31:03;;;;;;;3.90;1.60;;;21.30;65.70;;;;;;5029939;28;20137;-74
2022/09/11 12:33:55;;;;;;;3.45;1.40;;;21.30;64.50;;;;;;5029372;28;20056;-74
2022/09/11 12:36:48;;;;;;;3.42;1.50;;;21.30;65.10;;;;;;5010580;28;20125;-74
2022/09/11 12:39:24;;;;;;;4.72;1.67;;;21.40;65.70;;;;;;5031421;28;20050;-74
2022/09/11 12:41:52;;;;;;;5.38;1.90;;;21.40;66.20;;;;;;5013714;28;20056;-74
2022/09/11 12:44:31;;;;;;;5.00;2.00;;;21.40;66.80;;;;;;5031274;28;20050;-73
2022/09/11 12:47:11;;;;;;;3.88;1.67;;;21.40;67.20;;;;;;5013067;28;20120;-73
2022/09/11 12:49:41;;;;;;;4.65;1.90;;;21.50;66.90;;;;;;5030736;28;20057;-73
2022/09/11 12:52:23;;;;;;;3.20;1.50;;;21.50;66.80;;;;;;5013174;28;20141;-73
2022/09/11 12:54:51;;;;;;;3.33;1.58;;;21.50;67.00;;;;;;5012734;28;20273;-73
2022/09/11 12:57:26;;;;;;;4.23;1.80;;;21.50;67.20;;;;;;5012598;28;20054;-73
2022/09/11 12:59:58;;;;;;;3.63;1.50;;;21.70;67.40;;;;;;5013072;28;20507;-73
2022/09/11 13:02:32;;;;;;;3.97;1.77;;;21.70;67.20;;;;;;5013552;28;20050;-73
2022/09/11 13:04:59;;;;;;;3.40;1.40;;;21.80;67.10;;;;;;5013407;28;20050;-74